Time;durP1;ratioP1;P1;durP2;ratioP2;P2;SDS_P1;SDS_P2;PMS_P1;PMS_P2;Temp;Humidity;BMP_temperature;BMP_pressure;BME280_temperature;BME280_humidity;BME280_pressure;Samples;Min_cycle;Max_cycle;Signal;HPM_P1;HPM_P2
2023/03/23 00:02:27;;;;;;;;;;;;;;;11.20;74.42;100302.11;107757;1253;73118;-84
2023/03/23 00:04:54;;;;;;;;;;;;;;;11.12;74.44;100307.78;107576;1253;125390;-83
2023/03/23 00:07:22;;;;;;;;;;;;;;;11.07;74.57;100315.27;107416;1253;71071;-83
2023/03/23 00:09:53;;;;;;;;;;;;;;;11.04;74.55;100318.54;107483;1253;61121;-83
2023/03/23 00:12:28;;;;;;;;;;;;;;;11.01;74.70;100316.91;107593;1253;124978;-83
2023/03/23 00:14:55;;;;;;;;;;;;;;;10.98;74.82;100322.48;107506;1253;74696;-83
2023/03/23 00:17:23;;;;;;;;;;;;;;;10.95;74.83;100321.02;107809;1253;125598;-82
2023/03/23 00:19:51;;;;;;;;;;;;;;;10.93;74.97;100317.83;107737;1253;71151;-83
2023/03/23 00:22:24;;;;;;;;;;;;;;;10.93;75.13;100315.20;107410;1254;59605;-83
2023/03/23 00:24:54;;;;;;;;;;;;;;;10.93;75.08;100314.50;107441;1253;125056;-83
2023/03/23 00:27:24;;;;;;;;;;;;;;;10.93;75.13;100311.50;107685;1253;73822;-83
2023/03/23 00:29:53;;;;;;;;;;;;;;;10.93;75.18;100314.32;107370;1259;125005;-83
2023/03/23 00:32:27;;;;;;;;;;;;;;;10.94;75.06;100312.92;107554;1253;72476;-83
2023/03/23 00:34:54;;;;;;;;;;;;;;;10.94;75.05;100310.30;107658;1253;125807;-82
2023/03/23 00:37:22;;;;;;;;;;;;;;;10.93;75.18;100305.89;108923;1253;59404;-82
2023/03/23 00:39:51;;;;;;;;;;;;;;;10.92;75.13;100308.50;108148;1253;74999;-81
2023/03/23 00:42:18;;;;;;;;;;;;;;;10.91;75.22;100303.23;107618;1255;124962;-81
2023/03/23 00:44:45;;;;;;;;;;;;;;;10.89;75.15;100299.33;107589;1253;71048;-81
2023/03/23 00:47:12;;;;;;;;;;;;;;;10.88;75.19;100295.80;107605;1254;126725;-81
2023/03/23 00:49:40;;;;;;;;;;;;;;;10.89;75.23;100292.13;107630;1255;59710;-82
2023/03/23 00:52:07;;;;;;;;;;;;;;;10.93;75.29;100293.23;107602;1253;73378;-80
2023/03/23 00:54:36;;;;;;;;;;;;;;;10.96;75.25;100296.45;107513;1254;125395;-80
2023/03/23 00:57:04;;;;;;;;;;;;;;;10.97;75.19;100297.54;107663;1257;73268;-80
2023/03/23 00:59:32;;;;;;;;;;;;;;;10.97;75.29;100297.70;107778;1256;125588;-80
2023/03/23 01:02:00;;;;;;;;;;;;;;;10.99;75.27;100290.71;108010;1259;61826;-81
2023/03/23 01:04:28;;;;;;;;;;;;;;;11.01;75.16;100291.45;107937;1255;73294;-79
2023/03/23 01:06:56;;;;;;;;;;;;;;;11.00;75.22;100286.52;108005;1257;125414;-79
2023/03/23 01:09:23;;;;;;;;;;;;;;;10.98;75.02;100280.00;107787;1255;71384;-79
2023/03/23 01:11:50;;;;;;;;;;;;;;;10.94;74.96;100276.23;107724;1259;125585;-79
2023/03/23 01:14:17;;;;;;;;;;;;;;;10.89;75.06;100277.56;107687;1260;61737;-78
2023/03/23 01:16:44;;;;;;;;;;;;;;;10.83;74.98;100278.17;107629;1255;126097;-79
2023/03/23 01:19:12;;;;;;;;;;;;;;;10.79;75.01;100271.61;107391;1256;67532;-78
2023/03/23 01:21:39;;;;;;;;;;;;;;;10.76;75.12;100255.41;107454;1257;72621;-79
2023/03/23 01:24:06;;;;;;;;;;;;;;;10.74;75.13;100247.14;107742;1256;125500;-79
2023/03/23 01:26:33;;;;;;;;;;;;;;;10.70;75.08;100241.81;107858;1256;60003;-80
2023/03/23 01:29:00;;;;;;;;;;;;;;;10.69;75.25;100237.23;107895;1256;125528;-80
2023/03/23 01:31:28;;;;;;;;;;;;;;;10.68;75.31;100236.52;107690;1256;66414;-83
2023/03/23 01:33:56;;;;;;;;;;;;;;;10.69;75.34;100242.85;107531;1256;72158;-79
2023/03/23 01:36:26;;;;;;;;;;;;;;;10.69;75.26;100238.81;107290;1256;125856;-79
2023/03/23 01:38:53;;;;;;;;;;;;;;;10.67;75.29;100240.36;107473;1256;61221;-79
2023/03/23 01:41:20;;;;;;;;;;;;;;;10.66;75.28;100246.13;107861;1255;125263;-82
2023/03/23 01:43:54;;;;;;;;;;;;;;;10.63;75.26;100249.94;107949;1256;66094;-82
2023/03/23 01:46:24;;;;;;;;;;;;;;;10.61;75.20;100243.05;108072;1256;72693;-82
2023/03/23 01:48:51;;;;;;;;;;;;;;;10.57;75.24;100241.24;108066;1256;124955;-82
2023/03/23 01:51:18;;;;;;;;;;;;;;;10.54;75.33;100238.20;107991;1257;59940;-83
2023/03/23 01:53:45;;;;;;;;;;;;;;;10.51;75.39;100235.53;107940;1256;126384;-82
2023/03/23 01:56:13;;;;;;;;;;;;;;;10.49;75.40;100231.27;108144;1253;64953;-83
2023/03/23 01:58:40;;;;;;;;;;;;;;;10.45;75.40;100228.77;107791;1253;124417;-82
2023/03/23 02:01:11;;;;;;;;;;;;;;;10.42;75.48;100227.65;107911;1257;59319;-83
2023/03/23 02:03:41;;;;;;;;;;;;;;;10.38;75.47;100228.11;108075;1253;59385;-82
2023/03/23 02:06:08;;;;;;;;;;;;;;;10.32;75.32;100227.98;107808;1253;124297;-83
2023/03/23 02:08:35;;;;;;;;;;;;;;;10.24;75.41;100228.71;107964;1253;67421;-83
2023/03/23 02:11:08;;;;;;;;;;;;;;;10.15;75.39;100224.34;107725;1253;124416;-81
2023/03/23 02:13:35;;;;;;;;;;;;;;;10.06;75.39;100228.56;107836;1253;59455;-81
2023/03/23 02:16:12;;;;;;;;;;;;;;;9.98;75.49;100227.35;108113;1253;59628;-81
2023/03/23 02:18:57;;;;;;;;;;;;;;;9.88;75.60;100226.81;107963;1256;124906;-81
2023/03/23 02:21:31;;;;;;;;;;;;;;;9.78;75.74;100218.91;108101;1254;65636;-81
2023/03/23 02:23:58;;;;;;;;;;;;;;;9.72;75.78;100222.98;108055;1253;125041;-82
2023/03/23 02:26:25;;;;;;;;;;;;;;;9.67;75.86;100218.70;107917;1253;61310;-82
2023/03/23 02:28:58;;;;;;;;;;;;;;;9.62;75.95;100209.13;107822;1254;124971;-82
2023/03/23 02:31:30;;;;;;;;;;;;;;;9.56;76.04;100201.66;107953;1253;74719;-82
2023/03/23 02:34:03;;;;;;;;;;;;;;;9.51;76.13;100198.42;107871;1253;64575;-83
2023/03/23 02:36:35;;;;;;;;;;;;;;;9.47;76.22;100193.95;108201;1253;124949;-83
2023/03/23 02:39:08;;;;;;;;;;;;;;;9.43;76.31;100192.98;108148;1253;61231;-83
2023/03/23 02:41:42;;;;;;;;;;;;;;;9.40;76.41;100194.33;107675;1253;125003;-82
2023/03/23 02:44:09;;;;;;;;;;;;;;;9.36;76.43;100198.45;107790;1253;74716;-82
2023/03/23 02:46:36;;;;;;;;;;;;;;;9.32;76.58;100195.92;108309;1253;67107;-82
2023/03/23 02:49:03;;;;;;;;;;;;;;;9.28;76.51;100193.02;108412;1253;73879;-83
2023/03/23 02:51:30;;;;;;;;;;;;;;;9.22;76.54;100185.73;108312;1254;60635;-83
2023/03/23 02:53:57;;;;;;;;;;;;;;;9.17;76.65;100182.98;108172;1253;125565;-83
2023/03/23 02:56:25;;;;;;;;;;;;;;;9.11;76.70;100178.14;107720;1260;74932;-83
2023/03/23 02:58:53;;;;;;;;;;;;;;;9.05;76.78;100171.89;107618;1258;125173;-82
2023/03/23 03:01:28;;;;;;;;;;;;;;;9.00;76.83;100169.67;107702;1255;73717;-84
2023/03/23 03:03:56;;;;;;;;;;;;;;;8.94;76.93;100161.48;107628;1255;59807;-83
2023/03/23 03:06:37;;;;;;;;;;;;;;;8.91;77.04;100165.96;107775;1255;125517;-83
2023/03/23 03:09:04;;;;;;;;;;;;;;;8.87;77.13;100163.09;107849;1255;74443;-83
2023/03/23 03:11:31;;;;;;;;;;;;;;;8.84;77.24;100153.92;107493;1258;124986;-82
2023/03/23 03:14:04;;;;;;;;;;;;;;;8.83;77.34;100155.12;107726;1256;73196;-82
2023/03/23 03:16:43;;;;;;;;;;;;;;;8.82;77.40;100159.98;107513;1256;61356;-82
2023/03/23 03:19:11;;;;;;;;;;;;;;;8.82;77.48;100169.27;107452;1257;60385;-82
2023/03/23 03:21:41;;;;;;;;;;;;;;;8.84;77.66;100173.34;107488;1256;72448;-83
2023/03/23 03:24:11;;;;;;;;;;;;;;;8.87;77.72;100169.73;107350;1254;125317;-82
2023/03/23 03:26:40;;;;;;;;;;;;;;;8.89;77.76;100173.80;107833;1256;73341;-82
2023/03/23 03:29:07;;;;;;;;;;;;;;;8.91;77.77;100173.50;107445;1255;125489;-83
2023/03/23 03:31:39;;;;;;;;;;;;;;;8.93;77.68;100173.71;107473;1256;61506;-82
2023/03/23 03:34:06;;;;;;;;;;;;;;;8.91;77.53;100169.99;107501;1256;74496;-82
2023/03/23 03:36:37;;;;;;;;;;;;;;;8.86;77.45;100170.94;107344;1256;125015;-82
2023/03/23 03:39:07;;;;;;;;;;;;;;;8.81;77.39;100182.72;107597;1255;70282;-82
2023/03/23 03:41:35;;;;;;;;;;;;;;;8.75;77.36;100180.83;107696;1256;125387;-81
2023/03/23 03:44:02;;;;;;;;;;;;;;;8.69;77.36;100179.45;107945;1257;61208;-81
2023/03/23 03:46:30;;;;;;;;;;;;;;;8.64;77.37;100181.79;107704;1256;74601;-82
2023/03/23 03:49:06;;;;;;;;;;;;;;;8.60;77.52;100182.04;107407;1256;125314;-82
2023/03/23 03:51:34;;;;;;;;;;;;;;;8.59;77.63;100184.11;107525;1256;73301;-81
2023/03/23 03:54:01;;;;;;;;;;;;;;;8.59;77.62;100179.40;107618;1255;125319;-81
2023/03/23 03:56:28;;;;;;;;;;;;;;;8.58;77.75;100180.61;107904;1254;61829;-81
2023/03/23 03:58:56;;;;;;;;;;;;;;;8.58;77.71;100178.48;107939;1253;125744;-81
2023/03/23 04:01:24;;;;;;;;;;;;;;;8.58;77.81;100176.92;108080;1253;66225;-82
2023/03/23 04:03:51;;;;;;;;;;;;;;;8.58;77.80;100168.89;107989;1253;71713;-83
2023/03/23 04:06:18;;;;;;;;;;;;;;;8.58;77.77;100162.59;107732;1253;124840;-83
2023/03/23 04:08:45;;;;;;;;;;;;;;;8.57;77.77;100163.95;107697;1254;60466;-82
2023/03/23 04:11:13;;;;;;;;;;;;;;;8.54;77.83;100166.36;107658;1253;125275;-82
2023/03/23 04:13:41;;;;;;;;;;;;;;;8.52;77.77;100160.35;107954;1254;65626;-83
2023/03/23 04:16:09;;;;;;;;;;;;;;;8.50;77.90;100161.02;107884;1253;71352;-83
2023/03/23 04:18:38;;;;;;;;;;;;;;;8.49;77.84;100149.77;108047;1254;124751;-83
2023/03/23 04:21:07;;;;;;;;;;;;;;;8.46;77.85;100145.85;107940;1259;59694;-84
2023/03/23 04:23:35;;;;;;;;;;;;;;;8.43;77.84;100150.33;107634;1254;125622;-83
2023/03/23 04:26:03;;;;;;;;;;;;;;;8.42;78.00;100141.91;107795;1254;66763;-83
2023/03/23 04:28:33;;;;;;;;;;;;;;;8.43;78.08;100138.27;107933;1253;71591;-83
2023/03/23 04:31:00;;;;;;;;;;;;;;;8.45;78.16;100139.55;107859;1253;124554;-84
2023/03/23 04:33:28;;;;;;;;;;;;;;;8.45;78.20;100136.06;107950;1253;60398;-83
2023/03/23 04:35:56;;;;;;;;;;;;;;;8.48;78.25;100130.88;108083;1258;125019;-83
2023/03/23 04:38:24;;;;;;;;;;;;;;;8.52;78.39;100132.38;108068;1253;65775;-82
2023/03/23 04:40:51;;;;;;;;;;;;;;;8.59;78.30;100136.73;107943;1254;125073;-83
2023/03/23 04:43:21;;;;;;;;;;;;;;;8.67;78.53;100141.30;107677;1253;61266;-82
2023/03/23 04:45:59;;;;;;;;;;;;;;;8.77;78.56;100140.64;107766;1258;61150;-83
2023/03/23 04:48:27;;;;;;;;;;;;;;;8.88;78.51;100130.20;107605;1255;124922;-83
2023/03/23 04:50:54;;;;;;;;;;;;;;;8.97;78.40;100133.38;107755;1256;65866;-82
2023/03/23 04:53:24;;;;;;;;;;;;;;;9.05;78.38;100144.05;107509;1254;125354;-84
2023/03/23 04:55:51;;;;;;;;;;;;;;;9.15;78.24;100141.27;107612;1256;59959;-81
2023/03/23 04:58:19;;;;;;;;;;;;;;;9.24;78.27;100137.63;107766;1256;59780;-82
2023/03/23 05:00:50;;;;;;;;;;;;;;;9.33;78.10;100133.41;107743;1256;125472;-83
2023/03/23 05:03:17;;;;;;;;;;;;;;;9.44;78.11;100133.98;107753;1257;67121;-79
2023/03/23 05:05:46;;;;;;;;;;;;;;;9.53;78.06;100143.10;107478;1259;124626;-80
2023/03/23 05:08:15;;;;;;;;;;;;;;;9.64;77.90;100140.15;107390;1257;61395;-82
2023/03/23 05:10:42;;;;;;;;;;;;;;;9.76;77.73;100136.85;107479;1256;61138;-83
2023/03/23 05:13:10;;;;;;;;;;;;;;;9.83;77.58;100117.72;107491;1255;74938;-81
2023/03/23 05:15:37;;;;;;;;;;;;;;;9.93;77.56;100108.08;107538;1259;65544;-83
2023/03/23 05:18:04;;;;;;;;;;;;;;;10.01;77.41;100109.45;107441;1257;124270;-83
2023/03/23 05:20:31;;;;;;;;;;;;;;;10.08;77.28;100102.20;107591;1255;59731;-84
2023/03/23 05:23:05;;;;;;;;;;;;;;;10.13;76.91;100102.12;107508;1259;124440;-84
2023/03/23 05:25:36;;;;;;;;;;;;;;;10.15;76.82;100094.77;107627;1256;74698;-80
2023/03/23 05:28:03;;;;;;;;;;;;;;;10.15;76.58;100094.59;107645;1257;67024;-81
2023/03/23 05:30:30;;;;;;;;;;;;;;;10.16;76.58;100096.18;107543;1256;124767;-82
2023/03/23 05:32:57;;;;;;;;;;;;;;;10.18;76.46;100099.56;107599;1256;62271;-81
2023/03/23 05:35:24;;;;;;;;;;;;;;;10.20;76.41;100095.73;107594;1256;124611;-81
2023/03/23 05:37:53;;;;;;;;;;;;;;;10.24;76.42;100094.55;107488;1255;74672;-80
2023/03/23 05:40:21;;;;;;;;;;;;;;;10.27;76.39;100085.51;108054;1256;67297;-79
2023/03/23 05:42:48;;;;;;;;;;;;;;;10.33;76.31;100080.54;108682;1256;124388;-78
2023/03/23 05:45:16;;;;;;;;;;;;;;;10.35;76.24;100077.41;108896;1256;59023;-81
2023/03/23 05:47:43;;;;;;;;;;;;;;;10.38;76.19;100072.36;108221;1259;124764;-81
2023/03/23 05:50:11;;;;;;;;;;;;;;;10.38;76.08;100068.52;107434;1256;74718;-80
2023/03/23 05:52:38;;;;;;;;;;;;;;;10.38;76.12;100069.02;107608;1259;65638;-84
2023/03/23 05:55:09;;;;;;;;;;;;;;;10.40;76.11;100066.79;107268;1253;124930;-88
2023/03/23 05:57:37;;;;;;;;;;;;;;;10.45;76.10;100066.33;107356;1253;62117;-81
2023/03/23 06:00:19;;;;;;;;;;;;;;;10.49;76.02;100067.44;107679;1253;125099;-81
2023/03/23 06:02:48;;;;;;;;;;;;;;;10.54;76.01;100054.36;107735;1253;74597;-84
2023/03/23 06:05:15;;;;;;;;;;;;;;;10.63;76.08;100046.94;107313;1253;125870;-83
2023/03/23 06:07:46;;;;;;;;;;;;;;;10.74;75.96;100043.91;107306;1254;71067;-83
2023/03/23 06:10:13;;;;;;;;;;;;;;;10.84;75.76;100034.22;107469;1254;62051;-82
2023/03/23 06:12:40;;;;;;;;;;;;;;;10.96;75.79;100031.72;107419;1253;125120;-81
2023/03/23 06:15:08;;;;;;;;;;;;;;;11.03;75.67;100036.20;107563;1254;74691;-82
2023/03/23 06:17:36;;;;;;;;;;;;;;;11.12;75.47;100026.81;107530;1253;125595;-83
2023/03/23 06:20:09;;;;;;;;;;;;;;;11.23;75.51;100021.84;107548;1257;71633;-82
2023/03/23 06:22:41;;;;;;;;;;;;;;;11.33;75.20;100026.35;107569;1257;61323;-85
2023/03/23 06:25:08;;;;;;;;;;;;;;;11.39;74.87;100037.47;107674;1254;124897;-84
2023/03/23 06:27:35;;;;;;;;;;;;;;;11.43;74.84;100038.91;107733;1254;74750;-83
2023/03/23 06:30:03;;;;;;;;;;;;;;;11.48;74.71;100034.23;107527;1254;125396;-84
2023/03/23 06:32:32;;;;;;;;;;;;;;;11.51;74.43;100034.95;107806;1256;71093;-82
2023/03/23 06:34:59;;;;;;;;;;;;;;;11.51;74.35;100035.83;109031;1253;124850;-82
2023/03/23 06:37:26;;;;;;;;;;;;;;;11.52;74.28;100034.61;108214;1254;60024;-82
2023/03/23 06:39:55;;;;;;;;;;;;;;;11.54;74.17;100030.58;107445;1254;73613;-82
2023/03/23 06:42:24;;;;;;;;;;;;;;;11.55;74.03;100019.17;107540;1257;124314;-82
2023/03/23 06:44:51;;;;;;;;;;;;;;;11.55;73.96;100012.14;107426;1260;70707;-82
2023/03/23 06:47:18;;;;;;;;;;;;;;;11.55;73.88;100013.21;107670;1258;125035;-82
2023/03/23 06:49:47;;;;;;;;;;;;;;;11.55;73.81;100015.15;107795;1253;60006;-83
2023/03/23 06:52:14;;;;;;;;;;;;;;;11.56;73.70;100013.73;107955;1255;72954;-83
2023/03/23 06:54:41;;;;;;;;;;;;;;;11.58;73.76;100004.79;107971;1259;124596;-83
2023/03/23 06:57:09;;;;;;;;;;;;;;;11.68;73.73;100005.92;107446;1254;71105;-83
2023/03/23 06:59:36;;;;;;;;;;;;;;;11.82;73.73;99996.20;107464;1253;124346;-83
2023/03/23 07:02:04;;;;;;;;;;;;;;;11.97;73.79;99985.64;107639;1259;61225;-83
2023/03/23 07:04:32;;;;;;;;;;;;;;;12.18;73.58;99983.12;107652;1258;74685;-80
2023/03/23 07:06:59;;;;;;;;;;;;;;;12.45;73.56;99980.46;107647;1259;123915;-79
2023/03/23 07:09:26;;;;;;;;;;;;;;;12.67;73.11;99984.79;107817;1254;71377;-80
2023/03/23 07:11:53;;;;;;;;;;;;;;;12.81;72.76;99984.66;107860;1254;124885;-80
2023/03/23 07:14:21;;;;;;;;;;;;;;;12.90;72.37;99989.09;107884;1259;61241;-80
2023/03/23 07:16:48;;;;;;;;;;;;;;;12.98;72.14;99990.35;107543;1255;125494;-79
2023/03/23 07:19:16;;;;;;;;;;;;;;;13.12;72.05;99990.21;107580;1258;65833;-80
2023/03/23 07:21:43;;;;;;;;;;;;;;;13.26;71.79;99996.23;107516;1260;72599;-80
2023/03/23 07:24:11;;;;;;;;;;;;;;;13.35;71.44;100003.52;107607;1253;125246;-80
2023/03/23 07:26:38;;;;;;;;;;;;;;;13.40;71.24;100017.09;107672;1259;61325;-80
2023/03/23 07:29:06;;;;;;;;;;;;;;;13.38;70.81;100013.55;107540;1255;125391;-80
2023/03/23 07:31:33;;;;;;;;;;;;;;;13.30;70.48;100020.23;107631;1259;66075;-78
2023/03/23 07:34:00;;;;;;;;;;;;;;;13.22;70.30;100010.32;107537;1259;71015;-78
2023/03/23 07:36:27;;;;;;;;;;;;;;;13.21;70.33;99982.48;107580;1257;124335;-78
2023/03/23 07:38:54;;;;;;;;;;;;;;;13.34;70.47;99973.02;107820;1254;59709;-81
2023/03/23 07:41:22;;;;;;;;;;;;;;;13.51;70.35;99974.61;107675;1254;124787;-81
2023/03/23 07:43:49;;;;;;;;;;;;;;;13.65;70.12;99970.39;107753;1259;66058;-81
2023/03/23 07:46:16;;;;;;;;;;;;;;;13.81;70.08;99975.31;109114;1253;72511;-82
2023/03/23 07:48:43;;;;;;;;;;;;;;;13.97;69.82;99980.95;108933;1258;124944;-82
2023/03/23 07:51:10;;;;;;;;;;;;;;;14.07;69.40;99988.16;107468;1253;61180;-82
2023/03/23 07:53:37;;;;;;;;;;;;;;;14.16;69.21;99986.92;107679;1254;124224;-82
2023/03/23 07:56:05;;;;;;;;;;;;;;;14.26;69.14;99971.54;107856;1258;66939;-82
2023/03/23 07:58:33;;;;;;;;;;;;;;;14.30;68.77;99964.30;107505;1254;73744;-82
2023/03/23 08:01:01;;;;;;;;;;;;;;;14.32;68.77;99958.48;107466;1259;123871;-82
2023/03/23 08:03:28;;;;;;;;;;;;;;;14.27;68.31;99957.95;107809;1254;59642;-82
2023/03/23 08:06:00;;;;;;;;;;;;;;;14.22;68.28;99958.51;107751;1255;124648;-82
2023/03/23 08:08:27;;;;;;;;;;;;;;;14.13;67.97;99952.69;107708;1259;67664;-82
2023/03/23 08:10:54;;;;;;;;;;;;;;;14.05;67.93;99953.41;107676;1255;124926;-82
2023/03/23 08:13:21;;;;;;;;;;;;;;;14.00;67.97;99949.38;109150;1254;59127;-82
2023/03/23 08:15:49;;;;;;;;;;;;;;;14.01;68.01;99948.65;109112;1254;60319;-79
2023/03/23 08:18:17;;;;;;;;;;;;;;;14.04;68.02;99953.25;109114;1254;124078;-79
2023/03/23 08:20:48;;;;;;;;;;;;;;;14.09;67.96;99950.41;108836;1257;67606;-79
2023/03/23 08:23:15;;;;;;;;;;;;;;;14.22;67.85;99946.33;107600;1254;124786;-79
2023/03/23 08:25:43;;;;;;;;;;;;;;;14.41;67.73;99961.27;107824;1253;60302;-79
2023/03/23 08:28:10;;;;;;;;;;;;;;;14.52;67.40;99968.64;107817;1254;61720;-80
2023/03/23 08:30:38;;;;;;;;;;;;;;;14.53;67.06;99975.17;107547;1254;124077;-82
2023/03/23 08:33:05;;;;;;;;;;;;;;;14.53;66.88;99975.89;107416;1255;67789;-80
2023/03/23 08:35:35;;;;;;;;;;;;;;;14.49;66.81;99985.78;107636;1260;124633;-82
2023/03/23 08:38:03;;;;;;;;;;;;;;;14.45;66.59;99987.39;107833;1254;59777;-80
2023/03/23 08:40:30;;;;;;;;;;;;;;;14.42;66.62;99987.39;107667;1254;61151;-82
2023/03/23 08:42:58;;;;;;;;;;;;;;;14.45;66.50;99990.56;107669;1252;124076;-82
2023/03/23 08:45:26;;;;;;;;;;;;;;;14.50;66.47;99999.37;107567;1254;67426;-82
2023/03/23 08:47:54;;;;;;;;;;;;;;;14.56;66.32;99992.48;107319;1257;124649;-82
2023/03/23 08:50:26;;;;;;;;;;;;;;;14.63;66.27;99985.95;107526;1255;60537;-82
2023/03/23 08:52:54;;;;;;;;;;;;;;;14.66;66.03;99989.28;107446;1260;124987;-82
2023/03/23 08:55:21;;;;;;;;;;;;;;;14.72;66.03;99991.38;107953;1254;73996;-82
2023/03/23 08:57:52;;;;;;;;;;;;;;;14.76;66.08;99997.54;107469;1256;67133;-82
2023/03/23 09:00:20;;;;;;;;;;;;;;;14.80;66.16;99997.70;107287;1257;124491;-82
2023/03/23 09:02:48;;;;;;;;;;;;;;;14.81;66.03;99988.00;108987;1254;59201;-82
2023/03/23 09:05:21;;;;;;;;;;;;;;;14.75;65.82;99990.14;107346;1255;124847;-82
2023/03/23 09:07:51;;;;;;;;;;;;;;;14.69;65.86;99991.05;107566;1259;74375;-82
2023/03/23 09:10:18;;;;;;;;;;;;;;;14.72;66.18;99998.09;107511;1257;67214;-82
2023/03/23 09:12:45;;;;;;;;;;;;;;;14.73;66.17;99997.38;107259;1262;124678;-82
2023/03/23 09:15:14;;;;;;;;;;;;;;;14.72;66.09;99997.73;107348;1257;61310;-82
2023/03/23 09:17:42;;;;;;;;;;;;;;;14.75;66.06;99998.61;107055;1258;124117;-82
2023/03/23 09:20:13;;;;;;;;;;;;;;;14.84;66.21;100003.88;107188;1257;74687;-82
2023/03/23 09:22:41;;;;;;;;;;;;;;;14.91;66.18;100005.79;107091;1257;65455;-82
2023/03/23 09:25:08;;;;;;;;;;;;;;;14.95;65.92;100007.34;107178;1257;124466;-84
2023/03/23 09:27:36;;;;;;;;;;;;;;;14.98;65.93;100006.10;107423;1256;62277;-82
2023/03/23 09:30:06;;;;;;;;;;;;;;;15.01;65.90;100011.90;107067;1257;124828;-82
2023/03/23 09:32:34;;;;;;;;;;;;;;;15.10;65.98;100003.21;107087;1257;73226;-82
2023/03/23 09:35:03;;;;;;;;;;;;;;;15.22;65.97;99999.26;107379;1257;125036;-82
2023/03/23 09:37:30;;;;;;;;;;;;;;;15.39;66.21;99997.02;107278;1257;72920;-82
2023/03/23 09:39:57;;;;;;;;;;;;;;;15.54;65.92;99994.62;107236;1257;254216;-82
2023/03/23 09:42:44;;;;;;;;;;;;;;;15.58;65.72;99991.77;107283;1261;124704;-82
2023/03/23 09:45:17;;;;;;;;;;;;;;;15.62;65.72;99989.08;107579;1257;75656;-82
2023/03/23 09:48:03;;;;;;;;;;;;;;;15.67;65.53;99990.08;107469;1257;125552;-79
2023/03/23 09:50:32;;;;;;;;;;;;;;;15.75;65.47;99991.13;107805;1257;71486;-79
2023/03/23 09:53:02;;;;;;;;;;;;;;;15.76;65.32;99993.59;107739;1257;125302;-79
2023/03/23 09:55:29;;;;;;;;;;;;;;;15.75;65.37;99992.19;107834;1256;61334;-79
2023/03/23 09:58:10;;;;;;;;;;;;;;;15.71;65.32;99992.89;107809;1260;74494;-79
2023/03/23 10:00:44;;;;;;;;;;;;;;;15.65;65.37;99996.48;108753;1256;124752;-79
2023/03/23 10:03:21;;;;;;;;;;;;;;;15.70;65.57;99993.25;108902;1256;71426;-79
2023/03/23 10:05:49;;;;;;;;;;;;;;;15.76;65.57;99993.24;107842;1257;125356;-79
2023/03/23 10:08:18;;;;;;;;;;;;;;;15.87;65.69;99998.64;107741;1257;61040;-79
2023/03/23 10:10:46;;;;;;;;;;;;;;;15.89;65.32;99991.54;107589;1260;124892;-79
2023/03/23 10:13:22;;;;;;;;;;;;;;;15.81;65.13;99991.78;107728;1258;66784;-79
2023/03/23 10:15:50;;;;;;;;;;;;;;;15.71;65.20;100002.10;107513;1257;71066;-79
2023/03/23 10:18:26;;;;;;;;;;;;;;;15.64;65.25;100003.04;107497;1256;124463;-79
2023/03/23 10:20:53;;;;;;;;;;;;;;;15.58;65.54;100004.32;107510;1257;60459;-79
2023/03/23 10:23:40;;;;;;;;;;;;;;;15.66;65.70;100007.60;107565;1259;124862;-79
2023/03/23 10:26:28;;;;;;;;;;;;;;;15.71;65.66;100005.09;107537;1260;67378;-79
2023/03/23 10:29:00;;;;;;;;;;;;;;;15.81;65.88;100007.88;107460;1257;125403;-79
2023/03/23 10:31:38;;;;;;;;;;;;;;;15.90;65.76;100010.98;107810;1257;60938;-80
2023/03/23 10:34:17;;;;;;;;;;;;;;;15.85;65.22;100006.08;108848;1257;59016;-80
2023/03/23 10:37:04;;;;;;;;;;;;;;;15.75;65.28;100013.59;108006;1257;124387;-80
2023/03/23 10:39:37;;;;;;;;;;;;;;;15.66;65.27;100016.80;108810;1257;64823;-80
2023/03/23 10:42:06;;;;;;;;;;;;;;;15.61;65.35;100019.69;108815;1257;124507;-80
2023/03/23 10:44:33;;;;;;;;;;;;;;;15.60;65.49;100020.38;109083;1256;59090;-80
2023/03/23 10:47:00;;;;;;;;;;;;;;;15.61;65.59;100020.92;108609;1261;124835;-83
2023/03/23 10:49:33;;;;;;;;;;;;;;;15.60;65.51;100019.67;107924;1257;75301;-83
2023/03/23 10:52:03;;;;;;;;;;;;;;;15.49;65.44;100021.70;107685;1257;67905;-83
2023/03/23 10:54:38;;;;;;;;;;;;;;;15.39;65.51;100020.18;107487;1256;125040;-85
2023/03/23 10:57:24;;;;;;;;;;;;;;;15.33;65.75;100016.33;108528;1254;60042;-83
2023/03/23 10:59:51;;;;;;;;;;;;;;;15.31;65.90;100019.52;107854;1254;124877;-83
2023/03/23 11:02:18;;;;;;;;;;;;;;;15.26;65.59;100024.33;107722;1254;74269;-83
2023/03/23 11:04:58;;;;;;;;;;;;;;;15.22;65.72;100027.00;107422;1253;124660;-83
2023/03/23 11:07:28;;;;;;;;;;;;;;;15.19;65.86;100027.55;107367;1256;71404;-83
2023/03/23 11:09:57;;;;;;;;;;;;;;;15.27;66.09;100028.04;107383;1254;61325;-83
2023/03/23 11:12:25;;;;;;;;;;;;;;;15.33;66.00;100030.99;107535;1254;124937;-83
2023/03/23 11:15:03;;;;;;;;;;;;;;;15.33;65.80;100031.17;107657;1259;73409;-83
2023/03/23 11:17:37;;;;;;;;;;;;;;;15.33;65.76;100029.77;107226;1263;124495;-83
2023/03/23 11:20:12;;;;;;;;;;;;;;;15.37;65.76;100028.67;107515;1254;71076;-83
2023/03/23 11:22:39;;;;;;;;;;;;;;;15.44;65.77;100034.13;107292;1255;60108;-83
2023/03/23 11:25:09;;;;;;;;;;;;;;;15.49;65.65;100031.79;107607;1254;124813;-80
2023/03/23 11:27:37;;;;;;;;;;;;;;;15.58;65.72;100035.43;108002;1254;74748;-81
2023/03/23 11:30:11;;;;;;;;;;;;;;;15.68;65.49;100034.66;107540;1254;124256;-83
2023/03/23 11:32:42;;;;;;;;;;;;;;;15.76;65.45;100032.33;107613;1256;72821;-83
2023/03/23 11:35:15;;;;;;;;;;;;;;;15.76;65.05;100027.73;107845;1253;124474;-82
2023/03/23 11:37:43;;;;;;;;;;;;;;;15.70;64.83;100031.10;108046;1254;59783;-83
2023/03/23 11:40:18;;;;;;;;;;;;;;;15.69;64.98;100030.59;108186;1254;74607;-82
2023/03/23 11:42:56;;;;;;;;;;;;;;;15.72;65.12;100029.86;108047;1260;124939;-82
2023/03/23 11:45:33;;;;;;;;;;;;;;;15.67;64.85;100022.64;108020;1253;71490;-80
2023/03/23 11:48:04;;;;;;;;;;;;;;;15.52;64.87;100020.45;107853;1253;124543;-82
2023/03/23 11:50:37;;;;;;;;;;;;;;;15.46;64.83;100018.36;107883;1254;61149;-82
2023/03/23 11:53:11;;;;;;;;;;;;;;;15.41;64.86;100006.55;107680;1254;125068;-82
2023/03/23 11:55:47;;;;;;;;;;;;;;;15.36;65.06;100000.93;107575;1257;66130;-81
2023/03/23 11:58:18;;;;;;;;;;;;;;;15.37;65.19;100002.86;107842;1256;72438;-82
2023/03/23 12:00:49;;;;;;;;;;;;;;;15.33;64.97;100001.12;107785;1256;124616;-81
2023/03/23 12:03:16;;;;;;;;;;;;;;;15.31;65.15;100007.50;107716;1256;59296;-82
2023/03/23 12:05:43;;;;;;;;;;;;;;;15.35;65.23;100007.84;107529;1256;124545;-82
2023/03/23 12:08:29;;;;;;;;;;;;;;;15.43;65.44;100010.44;107535;1257;67048;-82
2023/03/23 12:11:03;;;;;;;;;;;;;;;15.55;65.34;100004.70;107676;1256;124342;-82
2023/03/23 12:14:08;;;;;;;;;;;;;;;15.52;65.02;100005.60;107949;1256;61296;-82
2023/03/23 12:16:40;;;;;;;;;;;;;;;15.56;65.22;100003.80;107468;1264;60558;-83
2023/03/23 12:19:17;;;;;;;;;;;;;;;15.54;65.08;100000.79;107281;1263;125011;-79
2023/03/23 12:21:56;;;;;;;;;;;;;;;15.53;65.15;100005.05;108444;1262;65919;-79
2023/03/23 12:24:27;;;;;;;;;;;;;;;15.54;65.13;100005.05;108323;1263;124782;-79
2023/03/23 12:27:00;;;;;;;;;;;;;;;15.55;65.03;100004.33;108516;1263;59551;-79
2023/03/23 12:29:27;;;;;;;;;;;;;;;15.57;65.12;100004.85;107982;1263;125338;-79
2023/03/23 12:32:12;;;;;;;;;;;;;;;15.65;65.25;100001.61;107463;1262;73112;-79
2023/03/23 12:34:52;;;;;;;;;;;;;;;15.67;64.93;100000.17;108438;1264;65916;-79
2023/03/23 12:37:19;;;;;;;;;;;;;;;15.71;65.11;99995.90;108384;1264;71427;-80
2023/03/23 12:39:52;;;;;;;;;;;;;;;15.73;64.88;99995.19;107997;1263;61347;-78
2023/03/23 12:42:23;;;;;;;;;;;;;;;15.65;64.77;99988.17;106932;1267;124371;-79